sensor_id;sensor_type;location;lat;lon;timestamp;P1;durP1;ratioP1;P2;durP2;ratioP2
21581;SDS011;10952;50.836;4.348;2022-08-01T00:00:24;2.43;;;1.63;;
21581;SDS011;10952;50.836;4.348;2022-08-01T00:02:50;5.43;;;1.73;;
21581;SDS011;10952;50.836;4.348;2022-08-01T00:05:15;5.87;;;3.00;;
21581;SDS011;10952;50.836;4.348;2022-08-01T00:07:41;4.30;;;1.77;;
21581;SDS011;10952;50.836;4.348;2022-08-01T00:10:08;5.20;;;2.20;;
21581;SDS011;10952;50.836;4.348;2022-08-01T00:12:36;5.93;;;1.93;;
21581;SDS011;10952;50.836;4.348;2022-08-01T00:15:03;6.07;;;2.20;;
21581;SDS011;10952;50.836;4.348;2022-08-01T00:17:30;7.57;;;2.50;;
21581;SDS011;10952;50.836;4.348;2022-08-01T00:19:56;5.57;;;2.53;;
21581;SDS011;10952;50.836;4.348;2022-08-01T00:22:22;6.17;;;2.73;;
21581;SDS011;10952;50.836;4.348;2022-08-01T00:24:47;7.10;;;3.10;;
21581;SDS011;10952;50.836;4.348;2022-08-01T00:27:13;7.13;;;2.60;;
21581;SDS011;10952;50.836;4.348;2022-08-01T00:29:39;9.77;;;3.23;;
21581;SDS011;10952;50.836;4.348;2022-08-01T00:32:07;7.73;;;2.90;;
21581;SDS011;10952;50.836;4.348;2022-08-01T00:34:33;5.43;;;3.00;;
21581;SDS011;10952;50.836;4.348;2022-08-01T00:36:59;7.57;;;2.97;;
21581;SDS011;10952;50.836;4.348;2022-08-01T00:39:24;9.17;;;3.67;;
21581;SDS011;10952;50.836;4.348;2022-08-01T00:41:50;7.53;;;3.20;;
21581;SDS011;10952;50.836;4.348;2022-08-01T00:44:16;6.80;;;3.30;;
21581;SDS011;10952;50.836;4.348;2022-08-01T00:46:41;7.27;;;3.57;;
21581;SDS011;10952;50.836;4.348;2022-08-01T00:49:08;8.83;;;3.50;;
21581;SDS011;10952;50.836;4.348;2022-08-01T00:51:34;9.60;;;4.47;;
21581;SDS011;10952;50.836;4.348;2022-08-01T00:54:00;8.70;;;3.33;;
21581;SDS011;10952;50.836;4.348;2022-08-01T00:56:27;11.37;;;4.83;;
21581;SDS011;10952;50.836;4.348;2022-08-01T00:58:53;5.50;;;2.73;;
21581;SDS011;10952;50.836;4.348;2022-08-01T01:01:20;10.03;;;2.67;;
21581;SDS011;10952;50.836;4.348;2022-08-01T01:03:47;7.30;;;3.20;;
21581;SDS011;10952;50.836;4.348;2022-08-01T01:11:40;5.67;;;3.17;;
21581;SDS011;10952;50.836;4.348;2022-08-01T01:14:27;6.23;;;3.10;;
21581;SDS011;10952;50.836;4.348;2022-08-01T01:17:03;5.60;;;3.10;;
21581;SDS011;10952;50.836;4.348;2022-08-01T01:19:33;4.90;;;3.23;;
21581;SDS011;10952;50.836;4.348;2022-08-01T01:22:16;5.57;;;3.10;;
21581;SDS011;10952;50.836;4.348;2022-08-01T01:25:02;7.83;;;3.70;;
21581;SDS011;10952;50.836;4.348;2022-08-01T01:30:23;12.17;;;6.70;;
21581;SDS011;10952;50.836;4.348;2022-08-01T01:32:53;11.57;;;6.63;;
21581;SDS011;10952;50.836;4.348;2022-08-01T01:35:22;13.87;;;7.40;;
21581;SDS011;10952;50.836;4.348;2022-08-01T01:37:52;16.90;;;7.40;;
21581;SDS011;10952;50.836;4.348;2022-08-01T01:40:42;11.13;;;6.90;;
21581;SDS011;10952;50.836;4.348;2022-08-01T01:43:10;14.17;;;6.60;;
21581;SDS011;10952;50.836;4.348;2022-08-01T01:45:37;14.73;;;7.27;;
21581;SDS011;10952;50.836;4.348;2022-08-01T01:48:04;14.17;;;7.33;;
21581;SDS011;10952;50.836;4.348;2022-08-01T01:50:32;13.43;;;7.73;;
21581;SDS011;10952;50.836;4.348;2022-08-01T01:53:00;14.37;;;6.90;;
21581;SDS011;10952;50.836;4.348;2022-08-01T01:55:27;15.43;;;7.87;;
21581;SDS011;10952;50.836;4.348;2022-08-01T01:57:54;15.67;;;7.53;;
21581;SDS011;10952;50.836;4.348;2022-08-01T02:00:22;11.63;;;7.23;;
21581;SDS011;10952;50.836;4.348;2022-08-01T02:02:50;20.37;;;7.23;;
21581;SDS011;10952;50.836;4.348;2022-08-01T02:05:18;22.50;;;7.83;;
21581;SDS011;10952;50.836;4.348;2022-08-01T02:07:45;19.90;;;7.83;;
21581;SDS011;10952;50.836;4.348;2022-08-01T02:10:14;16.87;;;8.00;;
21581;SDS011;10952;50.836;4.348;2022-08-01T02:12:42;18.03;;;8.57;;
21581;SDS011;10952;50.836;4.348;2022-08-01T02:15:11;20.80;;;8.53;;
21581;SDS011;10952;50.836;4.348;2022-08-01T02:17:44;20.33;;;8.20;;
21581;SDS011;10952;50.836;4.348;2022-08-01T02:20:14;18.60;;;8.50;;
21581;SDS011;10952;50.836;4.348;2022-08-01T02:22:46;17.40;;;7.93;;
21581;SDS011;10952;50.836;4.348;2022-08-01T02:25:20;20.23;;;8.20;;
21581;SDS011;10952;50.836;4.348;2022-08-01T02:28:03;17.67;;;8.60;;
21581;SDS011;10952;50.836;4.348;2022-08-01T02:30:35;20.23;;;8.23;;
21581;SDS011;10952;50.836;4.348;2022-08-01T02:33:08;18.23;;;8.93;;
21581;SDS011;10952;50.836;4.348;2022-08-01T02:35:40;20.00;;;8.20;;
21581;SDS011;10952;50.836;4.348;2022-08-01T02:38:12;20.10;;;9.53;;
21581;SDS011;10952;50.836;4.348;2022-08-01T02:40:41;22.60;;;9.87;;
21581;SDS011;10952;50.836;4.348;2022-08-01T02:43:10;21.77;;;9.93;;
21581;SDS011;10952;50.836;4.348;2022-08-01T02:45:42;21.20;;;9.00;;
21581;SDS011;10952;50.836;4.348;2022-08-01T02:48:13;20.57;;;9.93;;
21581;SDS011;10952;50.836;4.348;2022-08-01T02:50:42;23.70;;;10.30;;
21581;SDS011;10952;50.836;4.348;2022-08-01T02:53:12;20.57;;;9.57;;
21581;SDS011;10952;50.836;4.348;2022-08-01T02:55:39;22.87;;;9.47;;
21581;SDS011;10952;50.836;4.348;2022-08-01T02:58:06;21.13;;;8.37;;
21581;SDS011;10952;50.836;4.348;2022-08-01T03:00:34;20.40;;;9.10;;
21581;SDS011;10952;50.836;4.348;2022-08-01T03:03:01;20.53;;;8.67;;
21581;SDS011;10952;50.836;4.348;2022-08-01T03:05:29;16.60;;;7.87;;
21581;SDS011;10952;50.836;4.348;2022-08-01T03:07:57;22.17;;;8.47;;
21581;SDS011;10952;50.836;4.348;2022-08-01T03:10:26;17.20;;;8.50;;
21581;SDS011;10952;50.836;4.348;2022-08-01T03:12:53;16.27;;;7.77;;
21581;SDS011;10952;50.836;4.348;2022-08-01T03:15:21;19.30;;;8.80;;
21581;SDS011;10952;50.836;4.348;2022-08-01T03:17:50;18.67;;;9.03;;
21581;SDS011;10952;50.836;4.348;2022-08-01T03:20:18;19.00;;;9.13;;
21581;SDS011;10952;50.836;4.348;2022-08-01T03:22:45;17.27;;;8.80;;
21581;SDS011;10952;50.836;4.348;2022-08-01T03:25:13;21.80;;;10.37;;
21581;SDS011;10952;50.836;4.348;2022-08-01T03:27:41;18.70;;;9.77;;
21581;SDS011;10952;50.836;4.348;2022-08-01T03:30:08;22.77;;;10.67;;
21581;SDS011;10952;50.836;4.348;2022-08-01T03:32:35;25.53;;;11.87;;
21581;SDS011;10952;50.836;4.348;2022-08-01T03:35:01;25.70;;;12.17;;
21581;SDS011;10952;50.836;4.348;2022-08-01T03:37:28;26.13;;;12.50;;
21581;SDS011;10952;50.836;4.348;2022-08-01T03:42:34;27.03;;;12.37;;
21581;SDS011;10952;50.836;4.348;2022-08-01T03:45:04;28.73;;;12.97;;
21581;SDS011;10952;50.836;4.348;2022-08-01T03:47:34;25.53;;;11.60;;
21581;SDS011;10952;50.836;4.348;2022-08-01T03:50:02;24.77;;;12.70;;
21581;SDS011;10952;50.836;4.348;2022-08-01T03:52:29;25.30;;;13.03;;
21581;SDS011;10952;50.836;4.348;2022-08-01T03:54:58;25.30;;;13.70;;
21581;SDS011;10952;50.836;4.348;2022-08-01T03:57:28;27.07;;;12.30;;
21581;SDS011;10952;50.836;4.348;2022-08-01T03:59:55;24.20;;;12.90;;
21581;SDS011;10952;50.836;4.348;2022-08-01T04:02:23;29.20;;;13.03;;
21581;SDS011;10952;50.836;4.348;2022-08-01T04:04:49;24.80;;;13.23;;
21581;SDS011;10952;50.836;4.348;2022-08-01T04:07:30;30.63;;;14.60;;
21581;SDS011;10952;50.836;4.348;2022-08-01T04:09:57;28.87;;;15.07;;
21581;SDS011;10952;50.836;4.348;2022-08-01T04:12:23;31.60;;;14.77;;
21581;SDS011;10952;50.836;4.348;2022-08-01T04:14:49;29.93;;;15.23;;
21581;SDS011;10952;50.836;4.348;2022-08-01T04:17:15;28.80;;;14.80;;
21581;SDS011;10952;50.836;4.348;2022-08-01T04:19:41;31.00;;;16.17;;
21581;SDS011;10952;50.836;4.348;2022-08-01T04:22:08;29.43;;;15.30;;
21581;SDS011;10952;50.836;4.348;2022-08-01T04:24:36;30.20;;;15.83;;
21581;SDS011;10952;50.836;4.348;2022-08-01T04:27:05;32.27;;;16.27;;
21581;SDS011;10952;50.836;4.348;2022-08-01T04:29:34;30.80;;;17.17;;
21581;SDS011;10952;50.836;4.348;2022-08-01T04:32:03;24.13;;;14.63;;
21581;SDS011;10952;50.836;4.348;2022-08-01T04:34:33;27.40;;;15.97;;
21581;SDS011;10952;50.836;4.348;2022-08-01T04:36:59;28.93;;;15.50;;
21581;SDS011;10952;50.836;4.348;2022-08-01T04:39:26;28.07;;;14.30;;
21581;SDS011;10952;50.836;4.348;2022-08-01T04:41:55;25.17;;;13.73;;
21581;SDS011;10952;50.836;4.348;2022-08-01T04:44:24;24.50;;;14.43;;
21581;SDS011;10952;50.836;4.348;2022-08-01T04:46:53;28.70;;;16.03;;
21581;SDS011;10952;50.836;4.348;2022-08-01T04:49:20;29.90;;;16.33;;
21581;SDS011;10952;50.836;4.348;2022-08-01T04:51:53;31.53;;;15.93;;
21581;SDS011;10952;50.836;4.348;2022-08-01T04:54:23;23.97;;;14.80;;
21581;SDS011;10952;50.836;4.348;2022-08-01T04:56:52;26.37;;;14.57;;
21581;SDS011;10952;50.836;4.348;2022-08-01T04:59:23;25.27;;;15.77;;
21581;SDS011;10952;50.836;4.348;2022-08-01T05:02:08;31.37;;;17.47;;
21581;SDS011;10952;50.836;4.348;2022-08-01T05:04:39;25.60;;;15.03;;
21581;SDS011;10952;50.836;4.348;2022-08-01T05:07:05;23.73;;;14.33;;
21581;SDS011;10952;50.836;4.348;2022-08-01T05:09:31;27.57;;;15.13;;
21581;SDS011;10952;50.836;4.348;2022-08-01T05:11:58;27.50;;;15.60;;
21581;SDS011;10952;50.836;4.348;2022-08-01T05:14:27;24.30;;;14.23;;
21581;SDS011;10952;50.836;4.348;2022-08-01T05:16:56;28.60;;;14.93;;
21581;SDS011;10952;50.836;4.348;2022-08-01T05:19:28;26.63;;;14.67;;
21581;SDS011;10952;50.836;4.348;2022-08-01T05:21:58;28.60;;;14.87;;
21581;SDS011;10952;50.836;4.348;2022-08-01T05:24:26;21.40;;;14.40;;
21581;SDS011;10952;50.836;4.348;2022-08-01T05:26:53;22.00;;;13.33;;
21581;SDS011;10952;50.836;4.348;2022-08-01T05:29:20;24.53;;;13.17;;
21581;SDS011;10952;50.836;4.348;2022-08-01T05:31:45;23.63;;;13.67;;
21581;SDS011;10952;50.836;4.348;2022-08-01T05:34:11;24.00;;;13.33;;
21581;SDS011;10952;50.836;4.348;2022-08-01T05:36:37;26.10;;;13.70;;
21581;SDS011;10952;50.836;4.348;2022-08-01T05:39:03;23.30;;;13.83;;
21581;SDS011;10952;50.836;4.348;2022-08-01T05:41:29;19.73;;;13.00;;
21581;SDS011;10952;50.836;4.348;2022-08-01T05:43:55;22.97;;;12.90;;
21581;SDS011;10952;50.836;4.348;2022-08-01T05:46:21;21.17;;;12.13;;
21581;SDS011;10952;50.836;4.348;2022-08-01T05:48:47;19.97;;;12.70;;
21581;SDS011;10952;50.836;4.348;2022-08-01T05:51:12;22.70;;;12.87;;
21581;SDS011;10952;50.836;4.348;2022-08-01T05:53:38;18.60;;;12.30;;
21581;SDS011;10952;50.836;4.348;2022-08-01T05:56:04;18.27;;;10.93;;
21581;SDS011;10952;50.836;4.348;2022-08-01T05:58:29;18.60;;;10.50;;
21581;SDS011;10952;50.836;4.348;2022-08-01T06:00:56;18.10;;;11.00;;
21581;SDS011;10952;50.836;4.348;2022-08-01T06:03:24;16.83;;;9.83;;
21581;SDS011;10952;50.836;4.348;2022-08-01T06:05:53;20.13;;;11.00;;
21581;SDS011;10952;50.836;4.348;2022-08-01T06:08:18;17.43;;;10.27;;
21581;SDS011;10952;50.836;4.348;2022-08-01T06:10:44;19.43;;;11.23;;
21581;SDS011;10952;50.836;4.348;2022-08-01T06:13:10;16.83;;;10.13;;
21581;SDS011;10952;50.836;4.348;2022-08-01T06:15:35;21.00;;;11.20;;
21581;SDS011;10952;50.836;4.348;2022-08-01T06:18:01;18.27;;;9.93;;
21581;SDS011;10952;50.836;4.348;2022-08-01T06:20:27;23.27;;;11.40;;
21581;SDS011;10952;50.836;4.348;2022-08-01T06:22:52;23.07;;;12.37;;
21581;SDS011;10952;50.836;4.348;2022-08-01T06:25:19;16.43;;;10.80;;
21581;SDS011;10952;50.836;4.348;2022-08-01T06:27:45;14.53;;;9.33;;
21581;SDS011;10952;50.836;4.348;2022-08-01T06:30:10;14.30;;;8.53;;
21581;SDS011;10952;50.836;4.348;2022-08-01T06:32:36;18.23;;;9.17;;
21581;SDS011;10952;50.836;4.348;2022-08-01T06:35:02;19.67;;;9.30;;
21581;SDS011;10952;50.836;4.348;2022-08-01T06:37:29;17.93;;;9.23;;
21581;SDS011;10952;50.836;4.348;2022-08-01T06:39:56;18.83;;;9.67;;
21581;SDS011;10952;50.836;4.348;2022-08-01T06:42:26;15.63;;;9.43;;
21581;SDS011;10952;50.836;4.348;2022-08-01T06:44:52;15.30;;;8.50;;
21581;SDS011;10952;50.836;4.348;2022-08-01T06:47:17;17.03;;;8.23;;
21581;SDS011;10952;50.836;4.348;2022-08-01T06:49:43;17.60;;;8.73;;
21581;SDS011;10952;50.836;4.348;2022-08-01T06:52:08;14.40;;;7.73;;
21581;SDS011;10952;50.836;4.348;2022-08-01T06:54:34;16.83;;;7.80;;
21581;SDS011;10952;50.836;4.348;2022-08-01T06:57:00;10.80;;;5.97;;
21581;SDS011;10952;50.836;4.348;2022-08-01T06:59:25;14.20;;;6.67;;
21581;SDS011;10952;50.836;4.348;2022-08-01T07:01:51;10.73;;;6.50;;
21581;SDS011;10952;50.836;4.348;2022-08-01T07:04:16;12.70;;;6.90;;
21581;SDS011;10952;50.836;4.348;2022-08-01T07:06:42;9.30;;;6.13;;
21581;SDS011;10952;50.836;4.348;2022-08-01T07:09:08;7.50;;;5.80;;
21581;SDS011;10952;50.836;4.348;2022-08-01T07:11:33;10.07;;;5.80;;
21581;SDS011;10952;50.836;4.348;2022-08-01T07:13:59;10.63;;;5.70;;
21581;SDS011;10952;50.836;4.348;2022-08-01T07:16:25;10.30;;;6.37;;
21581;SDS011;10952;50.836;4.348;2022-08-01T07:18:51;9.27;;;5.90;;
21581;SDS011;10952;50.836;4.348;2022-08-01T07:21:17;9.80;;;5.50;;
21581;SDS011;10952;50.836;4.348;2022-08-01T07:23:42;6.43;;;5.33;;
21581;SDS011;10952;50.836;4.348;2022-08-01T07:26:08;13.40;;;5.20;;
21581;SDS011;10952;50.836;4.348;2022-08-01T07:28:34;9.63;;;6.05;;
21581;SDS011;10952;50.836;4.348;2022-08-01T07:30:59;8.60;;;5.97;;
21581;SDS011;10952;50.836;4.348;2022-08-01T07:33:25;8.63;;;5.93;;
21581;SDS011;10952;50.836;4.348;2022-08-01T07:35:50;12.05;;;5.03;;
21581;SDS011;10952;50.836;4.348;2022-08-01T07:38:16;8.70;;;4.40;;
21581;SDS011;10952;50.836;4.348;2022-08-01T07:40:45;5.73;;;4.47;;
21581;SDS011;10952;50.836;4.348;2022-08-01T07:43:10;8.90;;;5.45;;
21581;SDS011;10952;50.836;4.348;2022-08-01T07:45:36;11.17;;;5.53;;
21581;SDS011;10952;50.836;4.348;2022-08-01T07:48:05;10.27;;;5.13;;
21581;SDS011;10952;50.836;4.348;2022-08-01T07:50:31;5.67;;;4.33;;
21581;SDS011;10952;50.836;4.348;2022-08-01T07:52:57;5.90;;;4.50;;
21581;SDS011;10952;50.836;4.348;2022-08-01T07:55:23;6.28;;;5.03;;
21581;SDS011;10952;50.836;4.348;2022-08-01T07:57:49;5.68;;;4.15;;
21581;SDS011;10952;50.836;4.348;2022-08-01T08:00:15;8.35;;;4.40;;
21581;SDS011;10952;50.836;4.348;2022-08-01T08:02:41;7.13;;;4.82;;
21581;SDS011;10952;50.836;4.348;2022-08-01T08:05:07;6.50;;;4.45;;
21581;SDS011;10952;50.836;4.348;2022-08-01T08:07:33;5.10;;;4.40;;
21581;SDS011;10952;50.836;4.348;2022-08-01T08:09:59;4.90;;;3.55;;
21581;SDS011;10952;50.836;4.348;2022-08-01T08:12:24;3.80;;;3.23;;
21581;SDS011;10952;50.836;4.348;2022-08-01T08:14:50;5.77;;;3.50;;
21581;SDS011;10952;50.836;4.348;2022-08-01T08:17:16;4.70;;;3.00;;
21581;SDS011;10952;50.836;4.348;2022-08-01T08:19:42;5.63;;;2.90;;
21581;SDS011;10952;50.836;4.348;2022-08-01T08:22:08;5.20;;;2.80;;
21581;SDS011;10952;50.836;4.348;2022-08-01T08:24:34;5.18;;;2.40;;
21581;SDS011;10952;50.836;4.348;2022-08-01T08:27:00;5.03;;;2.70;;
21581;SDS011;10952;50.836;4.348;2022-08-01T08:29:27;4.95;;;2.35;;
21581;SDS011;10952;50.836;4.348;2022-08-01T08:31:55;6.68;;;2.45;;
21581;SDS011;10952;50.836;4.348;2022-08-01T08:34:21;6.60;;;2.58;;
21581;SDS011;10952;50.836;4.348;2022-08-01T08:36:47;6.70;;;3.42;;
21581;SDS011;10952;50.836;4.348;2022-08-01T08:39:14;10.63;;;5.53;;
21581;SDS011;10952;50.836;4.348;2022-08-01T08:41:40;11.75;;;6.38;;
21581;SDS011;10952;50.836;4.348;2022-08-01T08:44:07;5.93;;;3.03;;
21581;SDS011;10952;50.836;4.348;2022-08-01T08:46:37;3.55;;;2.78;;
21581;SDS011;10952;50.836;4.348;2022-08-01T08:49:07;6.00;;;3.30;;
21581;SDS011;10952;50.836;4.348;2022-08-01T08:51:33;4.20;;;2.90;;
21581;SDS011;10952;50.836;4.348;2022-08-01T08:54:02;4.85;;;2.45;;
21581;SDS011;10952;50.836;4.348;2022-08-01T08:56:30;5.22;;;3.33;;
21581;SDS011;10952;50.836;4.348;2022-08-01T08:58:59;4.40;;;3.20;;
21581;SDS011;10952;50.836;4.348;2022-08-01T09:01:25;5.05;;;2.90;;
21581;SDS011;10952;50.836;4.348;2022-08-01T09:03:51;4.45;;;3.28;;
21581;SDS011;10952;50.836;4.348;2022-08-01T09:06:17;5.47;;;3.42;;
21581;SDS011;10952;50.836;4.348;2022-08-01T09:08:43;4.75;;;3.00;;
21581;SDS011;10952;50.836;4.348;2022-08-01T09:11:09;6.50;;;3.00;;
21581;SDS011;10952;50.836;4.348;2022-08-01T09:13:35;6.30;;;3.75;;
21581;SDS011;10952;50.836;4.348;2022-08-01T09:16:01;7.97;;;4.00;;
21581;SDS011;10952;50.836;4.348;2022-08-01T09:26:12;3.78;;;2.20;;
21581;SDS011;10952;50.836;4.348;2022-08-01T09:28:40;3.80;;;2.35;;
21581;SDS011;10952;50.836;4.348;2022-08-01T09:31:15;5.43;;;2.83;;
21581;SDS011;10952;50.836;4.348;2022-08-01T09:33:55;4.95;;;2.22;;
21581;SDS011;10952;50.836;4.348;2022-08-01T09:36:26;6.32;;;2.60;;
21581;SDS011;10952;50.836;4.348;2022-08-01T09:39:31;4.10;;;2.28;;
21581;SDS011;10952;50.836;4.348;2022-08-01T09:42:02;3.85;;;1.90;;
21581;SDS011;10952;50.836;4.348;2022-08-01T09:44:44;3.60;;;2.22;;
21581;SDS011;10952;50.836;4.348;2022-08-01T09:47:11;4.45;;;2.50;;
21581;SDS011;10952;50.836;4.348;2022-08-01T09:49:38;5.53;;;2.33;;
21581;SDS011;10952;50.836;4.348;2022-08-01T09:52:15;4.60;;;1.65;;
21581;SDS011;10952;50.836;4.348;2022-08-01T09:54:43;4.35;;;1.85;;
21581;SDS011;10952;50.836;4.348;2022-08-01T09:57:18;4.03;;;1.13;;
21581;SDS011;10952;50.836;4.348;2022-08-01T09:59:46;17.42;;;11.25;;
21581;SDS011;10952;50.836;4.348;2022-08-01T10:02:14;2.83;;;1.45;;
21581;SDS011;10952;50.836;4.348;2022-08-01T10:04:51;3.53;;;2.05;;
21581;SDS011;10952;50.836;4.348;2022-08-01T10:07:18;4.97;;;1.70;;
21581;SDS011;10952;50.836;4.348;2022-08-01T10:09:44;4.32;;;1.40;;
21581;SDS011;10952;50.836;4.348;2022-08-01T10:12:15;2.08;;;1.10;;
21581;SDS011;10952;50.836;4.348;2022-08-01T10:14:44;6.55;;;1.55;;
21581;SDS011;10952;50.836;4.348;2022-08-01T10:17:14;3.08;;;1.50;;
21581;SDS011;10952;50.836;4.348;2022-08-01T10:19:41;4.30;;;1.23;;
21581;SDS011;10952;50.836;4.348;2022-08-01T10:22:09;3.60;;;1.40;;
21581;SDS011;10952;50.836;4.348;2022-08-01T10:24:39;2.17;;;1.17;;
21581;SDS011;10952;50.836;4.348;2022-08-01T10:27:08;4.80;;;1.48;;
21581;SDS011;10952;50.836;4.348;2022-08-01T10:29:40;4.20;;;1.13;;
21581;SDS011;10952;50.836;4.348;2022-08-01T10:32:07;1.50;;;0.93;;
21581;SDS011;10952;50.836;4.348;2022-08-01T10:34:37;4.80;;;1.20;;
21581;SDS011;10952;50.836;4.348;2022-08-01T10:37:04;3.33;;;1.10;;
21581;SDS011;10952;50.836;4.348;2022-08-01T10:39:32;11.10;;;7.10;;
21581;SDS011;10952;50.836;4.348;2022-08-01T10:41:58;2.60;;;0.85;;
21581;SDS011;10952;50.836;4.348;2022-08-01T10:44:25;2.78;;;0.90;;
21581;SDS011;10952;50.836;4.348;2022-08-01T10:46:54;4.03;;;1.00;;
21581;SDS011;10952;50.836;4.348;2022-08-01T10:49:26;5.88;;;1.05;;
21581;SDS011;10952;50.836;4.348;2022-08-01T10:51:55;3.30;;;1.10;;
21581;SDS011;10952;50.836;4.348;2022-08-01T10:54:24;2.47;;;1.00;;
21581;SDS011;10952;50.836;4.348;2022-08-01T10:56:51;3.22;;;0.80;;
21581;SDS011;10952;50.836;4.348;2022-08-01T10:59:22;3.20;;;0.98;;
21581;SDS011;10952;50.836;4.348;2022-08-01T11:01:59;2.45;;;0.98;;
21581;SDS011;10952;50.836;4.348;2022-08-01T11:07:20;2.40;;;0.95;;
21581;SDS011;10952;50.836;4.348;2022-08-01T11:09:51;3.50;;;1.10;;
21581;SDS011;10952;50.836;4.348;2022-08-01T11:12:37;4.93;;;1.88;;
21581;SDS011;10952;50.836;4.348;2022-08-01T11:20:20;2.25;;;1.00;;
21581;SDS011;10952;50.836;4.348;2022-08-01T11:30:47;2.05;;;0.68;;
21581;SDS011;10952;50.836;4.348;2022-08-01T11:38:39;3.10;;;0.80;;
21581;SDS011;10952;50.836;4.348;2022-08-01T11:41:12;2.67;;;0.93;;
21581;SDS011;10952;50.836;4.348;2022-08-01T11:44:04;1.30;;;0.60;;
21581;SDS011;10952;50.836;4.348;2022-08-01T11:46:47;5.65;;;0.80;;
21581;SDS011;10952;50.836;4.348;2022-08-01T11:52:03;2.53;;;1.15;;
21581;SDS011;10952;50.836;4.348;2022-08-01T11:57:14;1.77;;;0.80;;
21581;SDS011;10952;50.836;4.348;2022-08-01T11:59:45;6.40;;;0.80;;
21581;SDS011;10952;50.836;4.348;2022-08-01T12:07:20;4.78;;;0.90;;
21581;SDS011;10952;50.836;4.348;2022-08-01T12:09:47;3.00;;;0.93;;
21581;SDS011;10952;50.836;4.348;2022-08-01T12:12:16;3.78;;;1.10;;
21581;SDS011;10952;50.836;4.348;2022-08-01T12:14:43;2.88;;;0.98;;
21581;SDS011;10952;50.836;4.348;2022-08-01T12:17:10;7.55;;;3.42;;
21581;SDS011;10952;50.836;4.348;2022-08-01T12:19:36;6.93;;;1.30;;
21581;SDS011;10952;50.836;4.348;2022-08-01T12:22:04;2.30;;;1.13;;
21581;SDS011;10952;50.836;4.348;2022-08-01T12:24:30;3.42;;;1.30;;
21581;SDS011;10952;50.836;4.348;2022-08-01T12:26:57;3.35;;;0.98;;
21581;SDS011;10952;50.836;4.348;2022-08-01T12:29:32;4.20;;;1.90;;
21581;SDS011;10952;50.836;4.348;2022-08-01T12:32:00;7.57;;;3.53;;
21581;SDS011;10952;50.836;4.348;2022-08-01T12:34:26;4.35;;;2.13;;
21581;SDS011;10952;50.836;4.348;2022-08-01T12:36:55;2.67;;;1.00;;
21581;SDS011;10952;50.836;4.348;2022-08-01T12:39:29;4.85;;;1.08;;
21581;SDS011;10952;50.836;4.348;2022-08-01T12:41:56;2.90;;;0.80;;
21581;SDS011;10952;50.836;4.348;2022-08-01T12:44:23;2.28;;;0.82;;
21581;SDS011;10952;50.836;4.348;2022-08-01T12:46:49;3.08;;;1.05;;
21581;SDS011;10952;50.836;4.348;2022-08-01T12:49:15;13.38;;;1.70;;
21581;SDS011;10952;50.836;4.348;2022-08-01T12:51:41;3.60;;;1.13;;
21581;SDS011;10952;50.836;4.348;2022-08-01T12:54:09;1.58;;;0.88;;
21581;SDS011;10952;50.836;4.348;2022-08-01T12:56:35;1.40;;;0.90;;
21581;SDS011;10952;50.836;4.348;2022-08-01T12:59:18;3.00;;;1.00;;
21581;SDS011;10952;50.836;4.348;2022-08-01T13:01:45;2.85;;;1.30;;
21581;SDS011;10952;50.836;4.348;2022-08-01T13:04:12;3.35;;;1.30;;
21581;SDS011;10952;50.836;4.348;2022-08-01T13:06:37;4.35;;;0.90;;
21581;SDS011;10952;50.836;4.348;2022-08-01T13:09:09;10.63;;;5.07;;
21581;SDS011;10952;50.836;4.348;2022-08-01T13:11:37;3.42;;;1.38;;
21581;SDS011;10952;50.836;4.348;2022-08-01T13:14:03;6.40;;;2.92;;
21581;SDS011;10952;50.836;4.348;2022-08-01T13:16:30;8.52;;;4.28;;
21581;SDS011;10952;50.836;4.348;2022-08-01T13:18:56;8.20;;;3.70;;
21581;SDS011;10952;50.836;4.348;2022-08-01T13:21:26;3.88;;;1.55;;
21581;SDS011;10952;50.836;4.348;2022-08-01T13:29:13;2.33;;;1.20;;
21581;SDS011;10952;50.836;4.348;2022-08-01T13:31:45;3.25;;;1.20;;
21581;SDS011;10952;50.836;4.348;2022-08-01T13:34:12;5.03;;;1.38;;
21581;SDS011;10952;50.836;4.348;2022-08-01T13:36:38;2.55;;;1.20;;
21581;SDS011;10952;50.836;4.348;2022-08-01T13:39:05;3.85;;;1.40;;
21581;SDS011;10952;50.836;4.348;2022-08-01T13:41:50;4.13;;;1.50;;
21581;SDS011;10952;50.836;4.348;2022-08-01T13:44:16;10.07;;;3.72;;
21581;SDS011;10952;50.836;4.348;2022-08-01T13:46:42;6.03;;;1.70;;
21581;SDS011;10952;50.836;4.348;2022-08-01T13:49:09;5.68;;;1.58;;
21581;SDS011;10952;50.836;4.348;2022-08-01T13:51:36;3.72;;;1.58;;
21581;SDS011;10952;50.836;4.348;2022-08-01T13:54:02;4.53;;;1.48;;
21581;SDS011;10952;50.836;4.348;2022-08-01T13:56:28;6.05;;;2.13;;
21581;SDS011;10952;50.836;4.348;2022-08-01T13:58:54;4.63;;;1.23;;
21581;SDS011;10952;50.836;4.348;2022-08-01T14:01:23;4.28;;;1.30;;
21581;SDS011;10952;50.836;4.348;2022-08-01T14:03:49;3.03;;;1.40;;
21581;SDS011;10952;50.836;4.348;2022-08-01T14:06:17;4.88;;;1.33;;
21581;SDS011;10952;50.836;4.348;2022-08-01T14:08:43;5.88;;;1.40;;
21581;SDS011;10952;50.836;4.348;2022-08-01T14:11:10;4.72;;;2.13;;
21581;SDS011;10952;50.836;4.348;2022-08-01T14:13:36;3.58;;;0.98;;
21581;SDS011;10952;50.836;4.348;2022-08-01T14:16:05;4.20;;;1.40;;
21581;SDS011;10952;50.836;4.348;2022-08-01T14:18:31;4.50;;;1.38;;
21581;SDS011;10952;50.836;4.348;2022-08-01T14:20:57;3.80;;;1.42;;
21581;SDS011;10952;50.836;4.348;2022-08-01T14:23:23;2.30;;;1.15;;
21581;SDS011;10952;50.836;4.348;2022-08-01T14:25:49;3.35;;;1.40;;
21581;SDS011;10952;50.836;4.348;2022-08-01T14:28:15;1.67;;;1.10;;
21581;SDS011;10952;50.836;4.348;2022-08-01T14:30:42;3.03;;;1.00;;
21581;SDS011;10952;50.836;4.348;2022-08-01T14:33:08;3.55;;;1.10;;
21581;SDS011;10952;50.836;4.348;2022-08-01T14:35:35;4.03;;;1.13;;
21581;SDS011;10952;50.836;4.348;2022-08-01T14:38:01;3.65;;;1.10;;
21581;SDS011;10952;50.836;4.348;2022-08-01T14:40:27;4.90;;;1.35;;
21581;SDS011;10952;50.836;4.348;2022-08-01T14:42:53;4.00;;;1.10;;
21581;SDS011;10952;50.836;4.348;2022-08-01T14:45:19;3.15;;;1.00;;
21581;SDS011;10952;50.836;4.348;2022-08-01T14:47:46;2.63;;;1.13;;
21581;SDS011;10952;50.836;4.348;2022-08-01T14:50:12;3.78;;;1.13;;
21581;SDS011;10952;50.836;4.348;2022-08-01T14:52:40;2.17;;;1.15;;
21581;SDS011;10952;50.836;4.348;2022-08-01T14:55:09;2.80;;;0.98;;
21581;SDS011;10952;50.836;4.348;2022-08-01T14:57:36;3.45;;;1.30;;
21581;SDS011;10952;50.836;4.348;2022-08-01T15:00:05;2.17;;;1.17;;
21581;SDS011;10952;50.836;4.348;2022-08-01T15:02:36;1.50;;;1.02;;
21581;SDS011;10952;50.836;4.348;2022-08-01T15:05:02;1.15;;;0.70;;
21581;SDS011;10952;50.836;4.348;2022-08-01T15:07:29;2.80;;;1.20;;
21581;SDS011;10952;50.836;4.348;2022-08-01T15:09:54;5.03;;;2.67;;
21581;SDS011;10952;50.836;4.348;2022-08-01T15:12:23;3.35;;;1.50;;
21581;SDS011;10952;50.836;4.348;2022-08-01T15:14:49;2.40;;;1.23;;
21581;SDS011;10952;50.836;4.348;2022-08-01T15:17:20;3.00;;;1.20;;
21581;SDS011;10952;50.836;4.348;2022-08-01T15:19:52;2.55;;;1.10;;
21581;SDS011;10952;50.836;4.348;2022-08-01T15:22:19;3.25;;;1.25;;
21581;SDS011;10952;50.836;4.348;2022-08-01T15:24:47;2.65;;;1.05;;
21581;SDS011;10952;50.836;4.348;2022-08-01T15:27:14;2.97;;;1.15;;
21581;SDS011;10952;50.836;4.348;2022-08-01T15:29:40;4.05;;;1.83;;
21581;SDS011;10952;50.836;4.348;2022-08-01T15:32:07;3.22;;;1.35;;
21581;SDS011;10952;50.836;4.348;2022-08-01T15:34:33;4.65;;;1.63;;
21581;SDS011;10952;50.836;4.348;2022-08-01T15:37:00;3.75;;;1.13;;
21581;SDS011;10952;50.836;4.348;2022-08-01T15:39:27;7.07;;;1.45;;
21581;SDS011;10952;50.836;4.348;2022-08-01T15:41:54;3.50;;;1.15;;